sensor_id;sensor_type;location;lat;lon;timestamp;P1;durP1;ratioP1;P2;durP2;ratioP2
78732;SDS011;68056;52.530;5.454;2024-01-30T00:02:16;9.30;;;6.30;;
78732;SDS011;68056;52.530;5.454;2024-01-30T00:04:42;10.32;;;6.35;;
78732;SDS011;68056;52.530;5.454;2024-01-30T00:07:07;8.55;;;6.00;;
78732;SDS011;68056;52.530;5.454;2024-01-30T00:09:33;9.90;;;6.97;;
78732;SDS011;68056;52.530;5.454;2024-01-30T00:11:59;9.80;;;7.60;;
78732;SDS011;68056;52.530;5.454;2024-01-30T00:14:24;10.45;;;6.72;;
78732;SDS011;68056;52.530;5.454;2024-01-30T00:16:50;9.50;;;6.40;;
78732;SDS011;68056;52.530;5.454;2024-01-30T00:19:22;9.57;;;5.18;;
78732;SDS011;68056;52.530;5.454;2024-01-30T00:21:48;7.90;;;6.13;;
78732;SDS011;68056;52.530;5.454;2024-01-30T00:24:22;9.88;;;6.78;;
78732;SDS011;68056;52.530;5.454;2024-01-30T00:26:48;8.48;;;6.03;;
78732;SDS011;68056;52.530;5.454;2024-01-30T00:29:14;8.45;;;6.03;;
78732;SDS011;68056;52.530;5.454;2024-01-30T00:32:00;9.45;;;6.68;;
78732;SDS011;68056;52.530;5.454;2024-01-30T00:34:26;8.48;;;6.45;;
78732;SDS011;68056;52.530;5.454;2024-01-30T00:36:52;6.90;;;5.63;;
78732;SDS011;68056;52.530;5.454;2024-01-30T00:39:17;7.85;;;5.15;;
78732;SDS011;68056;52.530;5.454;2024-01-30T00:41:44;8.00;;;5.65;;
78732;SDS011;68056;52.530;5.454;2024-01-30T00:44:13;9.35;;;5.70;;
78732;SDS011;68056;52.530;5.454;2024-01-30T00:46:38;7.28;;;5.55;;
78732;SDS011;68056;52.530;5.454;2024-01-30T00:49:04;8.50;;;5.93;;
78732;SDS011;68056;52.530;5.454;2024-01-30T00:51:29;7.07;;;5.22;;
78732;SDS011;68056;52.530;5.454;2024-01-30T00:53:55;7.60;;;5.85;;
78732;SDS011;68056;52.530;5.454;2024-01-30T00:56:21;8.93;;;5.97;;
78732;SDS011;68056;52.530;5.454;2024-01-30T00:58:46;7.28;;;5.50;;
78732;SDS011;68056;52.530;5.454;2024-01-30T01:01:12;9.30;;;6.03;;
78732;SDS011;68056;52.530;5.454;2024-01-30T01:03:38;10.30;;;5.60;;
78732;SDS011;68056;52.530;5.454;2024-01-30T01:06:08;8.30;;;5.60;;
78732;SDS011;68056;52.530;5.454;2024-01-30T01:08:34;9.18;;;5.70;;
78732;SDS011;68056;52.530;5.454;2024-01-30T01:11:00;8.98;;;6.00;;
78732;SDS011;68056;52.530;5.454;2024-01-30T01:13:25;8.13;;;5.80;;
78732;SDS011;68056;52.530;5.454;2024-01-30T01:15:51;7.45;;;5.55;;
78732;SDS011;68056;52.530;5.454;2024-01-30T01:18:17;7.45;;;5.68;;
78732;SDS011;68056;52.530;5.454;2024-01-30T01:20:42;9.68;;;5.80;;
78732;SDS011;68056;52.530;5.454;2024-01-30T01:23:10;9.77;;;5.57;;
78732;SDS011;68056;52.530;5.454;2024-01-30T01:25:36;7.85;;;5.82;;
78732;SDS011;68056;52.530;5.454;2024-01-30T01:28:02;9.25;;;6.03;;
78732;SDS011;68056;52.530;5.454;2024-01-30T01:30:28;10.85;;;6.35;;
78732;SDS011;68056;52.530;5.454;2024-01-30T01:32:55;8.60;;;5.72;;
78732;SDS011;68056;52.530;5.454;2024-01-30T01:35:24;7.63;;;4.80;;
78732;SDS011;68056;52.530;5.454;2024-01-30T01:37:53;8.02;;;5.45;;
78732;SDS011;68056;52.530;5.454;2024-01-30T01:40:24;7.93;;;6.07;;
78732;SDS011;68056;52.530;5.454;2024-01-30T01:42:51;8.60;;;5.82;;
78732;SDS011;68056;52.530;5.454;2024-01-30T01:45:18;8.75;;;6.18;;
78732;SDS011;68056;52.530;5.454;2024-01-30T01:47:44;8.82;;;5.20;;
78732;SDS011;68056;52.530;5.454;2024-01-30T01:50:13;8.55;;;5.72;;
78732;SDS011;68056;52.530;5.454;2024-01-30T01:52:41;7.10;;;5.40;;
78732;SDS011;68056;52.530;5.454;2024-01-30T01:55:06;12.18;;;6.32;;
78732;SDS011;68056;52.530;5.454;2024-01-30T01:57:33;9.57;;;5.90;;
78732;SDS011;68056;52.530;5.454;2024-01-30T01:59:59;8.27;;;5.75;;
78732;SDS011;68056;52.530;5.454;2024-01-30T02:02:26;9.35;;;5.93;;
78732;SDS011;68056;52.530;5.454;2024-01-30T02:04:55;7.53;;;6.07;;
78732;SDS011;68056;52.530;5.454;2024-01-30T02:07:22;11.10;;;6.68;;
78732;SDS011;68056;52.530;5.454;2024-01-30T02:09:48;6.15;;;5.22;;
78732;SDS011;68056;52.530;5.454;2024-01-30T02:12:13;10.25;;;5.93;;
78732;SDS011;68056;52.530;5.454;2024-01-30T02:14:45;10.73;;;5.63;;
78732;SDS011;68056;52.530;5.454;2024-01-30T02:17:12;8.38;;;6.25;;
78732;SDS011;68056;52.530;5.454;2024-01-30T02:19:38;7.28;;;5.28;;
78732;SDS011;68056;52.530;5.454;2024-01-30T02:22:04;7.57;;;5.20;;
78732;SDS011;68056;52.530;5.454;2024-01-30T02:24:31;11.38;;;6.22;;
78732;SDS011;68056;52.530;5.454;2024-01-30T02:26:56;11.35;;;6.38;;
78732;SDS011;68056;52.530;5.454;2024-01-30T02:29:22;9.77;;;5.57;;
78732;SDS011;68056;52.530;5.454;2024-01-30T02:31:48;8.00;;;5.97;;
78732;SDS011;68056;52.530;5.454;2024-01-30T02:34:13;5.90;;;4.55;;
78732;SDS011;68056;52.530;5.454;2024-01-30T02:36:43;9.32;;;6.25;;
78732;SDS011;68056;52.530;5.454;2024-01-30T02:39:09;7.75;;;5.38;;
78732;SDS011;68056;52.530;5.454;2024-01-30T02:41:34;7.93;;;6.30;;
78732;SDS011;68056;52.530;5.454;2024-01-30T02:44:00;8.80;;;6.22;;
78732;SDS011;68056;52.530;5.454;2024-01-30T02:46:27;6.80;;;5.07;;
78732;SDS011;68056;52.530;5.454;2024-01-30T02:48:52;10.23;;;6.40;;
78732;SDS011;68056;52.530;5.454;2024-01-30T02:51:18;9.20;;;6.47;;
78732;SDS011;68056;52.530;5.454;2024-01-30T02:53:43;9.32;;;6.43;;
78732;SDS011;68056;52.530;5.454;2024-01-30T02:56:09;9.75;;;6.30;;
78732;SDS011;68056;52.530;5.454;2024-01-30T02:58:35;8.80;;;5.80;;
78732;SDS011;68056;52.530;5.454;2024-01-30T03:01:01;10.38;;;6.10;;
78732;SDS011;68056;52.530;5.454;2024-01-30T03:03:27;8.48;;;6.20;;
78732;SDS011;68056;52.530;5.454;2024-01-30T03:05:53;8.95;;;6.20;;
78732;SDS011;68056;52.530;5.454;2024-01-30T03:08:19;7.32;;;5.80;;
78732;SDS011;68056;52.530;5.454;2024-01-30T03:10:44;10.00;;;6.00;;
78732;SDS011;68056;52.530;5.454;2024-01-30T03:13:10;8.45;;;5.03;;
78732;SDS011;68056;52.530;5.454;2024-01-30T03:15:36;7.32;;;5.78;;
78732;SDS011;68056;52.530;5.454;2024-01-30T03:18:02;10.07;;;5.43;;
78732;SDS011;68056;52.530;5.454;2024-01-30T03:20:28;8.80;;;5.68;;
78732;SDS011;68056;52.530;5.454;2024-01-30T03:22:55;9.38;;;5.47;;
78732;SDS011;68056;52.530;5.454;2024-01-30T03:25:20;6.40;;;5.07;;
78732;SDS011;68056;52.530;5.454;2024-01-30T03:27:46;7.50;;;5.50;;
78732;SDS011;68056;52.530;5.454;2024-01-30T03:30:12;8.90;;;6.07;;
78732;SDS011;68056;52.530;5.454;2024-01-30T03:32:38;7.18;;;5.93;;
78732;SDS011;68056;52.530;5.454;2024-01-30T03:35:03;7.68;;;5.35;;
78732;SDS011;68056;52.530;5.454;2024-01-30T03:37:29;9.38;;;5.57;;
78732;SDS011;68056;52.530;5.454;2024-01-30T03:39:55;9.27;;;5.80;;
78732;SDS011;68056;52.530;5.454;2024-01-30T03:42:20;6.78;;;4.65;;
78732;SDS011;68056;52.530;5.454;2024-01-30T03:44:47;8.40;;;5.63;;
78732;SDS011;68056;52.530;5.454;2024-01-30T03:47:13;9.70;;;5.35;;
78732;SDS011;68056;52.530;5.454;2024-01-30T03:49:39;8.30;;;6.28;;
78732;SDS011;68056;52.530;5.454;2024-01-30T03:52:05;6.68;;;4.72;;
78732;SDS011;68056;52.530;5.454;2024-01-30T03:54:30;8.48;;;6.13;;
78732;SDS011;68056;52.530;5.454;2024-01-30T03:56:56;7.45;;;5.22;;
78732;SDS011;68056;52.530;5.454;2024-01-30T03:59:21;7.90;;;4.50;;
78732;SDS011;68056;52.530;5.454;2024-01-30T04:01:49;7.88;;;5.90;;
78732;SDS011;68056;52.530;5.454;2024-01-30T04:04:15;10.80;;;6.18;;
78732;SDS011;68056;52.530;5.454;2024-01-30T04:06:41;9.98;;;5.55;;
78732;SDS011;68056;52.530;5.454;2024-01-30T04:09:07;6.55;;;5.10;;
78732;SDS011;68056;52.530;5.454;2024-01-30T04:11:33;8.00;;;5.25;;
78732;SDS011;68056;52.530;5.454;2024-01-30T04:14:06;8.35;;;5.93;;
78732;SDS011;68056;52.530;5.454;2024-01-30T04:16:40;7.72;;;5.50;;
78732;SDS011;68056;52.530;5.454;2024-01-30T04:19:06;8.50;;;5.53;;
78732;SDS011;68056;52.530;5.454;2024-01-30T04:21:31;6.07;;;4.32;;
78732;SDS011;68056;52.530;5.454;2024-01-30T04:23:57;8.65;;;5.72;;
78732;SDS011;68056;52.530;5.454;2024-01-30T04:26:23;7.50;;;5.65;;
78732;SDS011;68056;52.530;5.454;2024-01-30T04:28:48;6.55;;;4.78;;
78732;SDS011;68056;52.530;5.454;2024-01-30T04:31:14;7.50;;;5.38;;
78732;SDS011;68056;52.530;5.454;2024-01-30T04:33:40;8.77;;;5.70;;
78732;SDS011;68056;52.530;5.454;2024-01-30T04:36:08;7.50;;;5.22;;
78732;SDS011;68056;52.530;5.454;2024-01-30T04:38:35;7.40;;;5.07;;
78732;SDS011;68056;52.530;5.454;2024-01-30T04:41:00;8.23;;;5.03;;
78732;SDS011;68056;52.530;5.454;2024-01-30T04:43:26;6.97;;;5.20;;
78732;SDS011;68056;52.530;5.454;2024-01-30T04:45:52;10.93;;;5.75;;
78732;SDS011;68056;52.530;5.454;2024-01-30T04:48:17;7.70;;;5.88;;
78732;SDS011;68056;52.530;5.454;2024-01-30T04:50:43;7.10;;;5.15;;
78732;SDS011;68056;52.530;5.454;2024-01-30T04:53:10;8.15;;;5.40;;
78732;SDS011;68056;52.530;5.454;2024-01-30T04:55:36;9.90;;;5.32;;
78732;SDS011;68056;52.530;5.454;2024-01-30T04:58:01;8.35;;;6.05;;
78732;SDS011;68056;52.530;5.454;2024-01-30T05:00:27;9.55;;;6.97;;
78732;SDS011;68056;52.530;5.454;2024-01-30T05:02:54;7.93;;;6.35;;
78732;SDS011;68056;52.530;5.454;2024-01-30T05:05:20;8.32;;;5.63;;
78732;SDS011;68056;52.530;5.454;2024-01-30T05:07:47;7.53;;;5.38;;
78732;SDS011;68056;52.530;5.454;2024-01-30T05:10:12;8.20;;;5.80;;
78732;SDS011;68056;52.530;5.454;2024-01-30T05:12:38;8.15;;;5.22;;
78732;SDS011;68056;52.530;5.454;2024-01-30T05:15:04;11.07;;;5.57;;
78732;SDS011;68056;52.530;5.454;2024-01-30T05:17:31;9.02;;;6.60;;
78732;SDS011;68056;52.530;5.454;2024-01-30T05:19:56;7.35;;;5.15;;
78732;SDS011;68056;52.530;5.454;2024-01-30T05:22:22;10.00;;;6.07;;
78732;SDS011;68056;52.530;5.454;2024-01-30T05:24:47;8.52;;;5.47;;
78732;SDS011;68056;52.530;5.454;2024-01-30T05:27:13;6.72;;;5.68;;
78732;SDS011;68056;52.530;5.454;2024-01-30T05:29:39;10.23;;;6.10;;
78732;SDS011;68056;52.530;5.454;2024-01-30T05:32:06;8.98;;;5.43;;
78732;SDS011;68056;52.530;5.454;2024-01-30T05:34:35;9.45;;;6.35;;
78732;SDS011;68056;52.530;5.454;2024-01-30T05:37:03;8.95;;;5.90;;
78732;SDS011;68056;52.530;5.454;2024-01-30T05:39:29;9.05;;;6.47;;
78732;SDS011;68056;52.530;5.454;2024-01-30T05:41:57;7.50;;;6.00;;
78732;SDS011;68056;52.530;5.454;2024-01-30T05:44:23;6.75;;;5.35;;
78732;SDS011;68056;52.530;5.454;2024-01-30T05:46:49;10.07;;;6.13;;
78732;SDS011;68056;52.530;5.454;2024-01-30T05:49:14;7.63;;;5.10;;
78732;SDS011;68056;52.530;5.454;2024-01-30T05:51:40;8.10;;;5.35;;
78732;SDS011;68056;52.530;5.454;2024-01-30T05:54:05;8.93;;;6.25;;
78732;SDS011;68056;52.530;5.454;2024-01-30T05:56:31;7.38;;;5.47;;
78732;SDS011;68056;52.530;5.454;2024-01-30T05:58:56;7.40;;;4.90;;
78732;SDS011;68056;52.530;5.454;2024-01-30T06:01:22;7.53;;;5.53;;
78732;SDS011;68056;52.530;5.454;2024-01-30T06:03:48;9.90;;;5.85;;
78732;SDS011;68056;52.530;5.454;2024-01-30T06:06:13;6.30;;;4.82;;
78732;SDS011;68056;52.530;5.454;2024-01-30T06:08:39;8.77;;;5.43;;
78732;SDS011;68056;52.530;5.454;2024-01-30T06:11:04;7.88;;;5.93;;
78732;SDS011;68056;52.530;5.454;2024-01-30T06:13:30;8.88;;;5.47;;
78732;SDS011;68056;52.530;5.454;2024-01-30T06:15:56;6.55;;;4.88;;
78732;SDS011;68056;52.530;5.454;2024-01-30T06:18:23;7.72;;;5.70;;
78732;SDS011;68056;52.530;5.454;2024-01-30T06:20:49;7.40;;;5.68;;
78732;SDS011;68056;52.530;5.454;2024-01-30T06:23:15;7.70;;;4.90;;
78732;SDS011;68056;52.530;5.454;2024-01-30T06:25:41;8.75;;;4.88;;
78732;SDS011;68056;52.530;5.454;2024-01-30T06:28:06;5.88;;;4.78;;
78732;SDS011;68056;52.530;5.454;2024-01-30T06:30:32;7.32;;;4.78;;
78732;SDS011;68056;52.530;5.454;2024-01-30T06:32:58;6.47;;;5.60;;
78732;SDS011;68056;52.530;5.454;2024-01-30T06:35:23;7.00;;;5.03;;
78732;SDS011;68056;52.530;5.454;2024-01-30T06:37:49;6.10;;;4.68;;
78732;SDS011;68056;52.530;5.454;2024-01-30T06:40:14;7.13;;;5.10;;
78732;SDS011;68056;52.530;5.454;2024-01-30T06:42:40;7.78;;;5.05;;
78732;SDS011;68056;52.530;5.454;2024-01-30T06:45:06;7.05;;;5.35;;
78732;SDS011;68056;52.530;5.454;2024-01-30T06:47:32;5.65;;;4.28;;
78732;SDS011;68056;52.530;5.454;2024-01-30T06:49:58;8.98;;;5.38;;
78732;SDS011;68056;52.530;5.454;2024-01-30T06:52:24;5.35;;;4.47;;
78732;SDS011;68056;52.530;5.454;2024-01-30T06:54:50;7.00;;;4.82;;
78732;SDS011;68056;52.530;5.454;2024-01-30T06:57:15;7.82;;;4.88;;
78732;SDS011;68056;52.530;5.454;2024-01-30T06:59:41;6.13;;;4.68;;
78732;SDS011;68056;52.530;5.454;2024-01-30T07:02:09;8.35;;;4.97;;
78732;SDS011;68056;52.530;5.454;2024-01-30T07:04:36;7.63;;;5.07;;
78732;SDS011;68056;52.530;5.454;2024-01-30T07:07:02;9.70;;;5.55;;
78732;SDS011;68056;52.530;5.454;2024-01-30T07:09:29;8.55;;;5.30;;
78732;SDS011;68056;52.530;5.454;2024-01-30T07:11:55;7.68;;;5.07;;
78732;SDS011;68056;52.530;5.454;2024-01-30T07:14:23;8.85;;;5.15;;
78732;SDS011;68056;52.530;5.454;2024-01-30T07:16:49;9.48;;;5.47;;
78732;SDS011;68056;52.530;5.454;2024-01-30T07:19:15;9.57;;;5.82;;
78732;SDS011;68056;52.530;5.454;2024-01-30T07:21:40;8.10;;;5.57;;
78732;SDS011;68056;52.530;5.454;2024-01-30T07:24:06;6.38;;;4.50;;
78732;SDS011;68056;52.530;5.454;2024-01-30T07:26:32;7.40;;;4.90;;
78732;SDS011;68056;52.530;5.454;2024-01-30T07:28:57;7.00;;;4.90;;
78732;SDS011;68056;52.530;5.454;2024-01-30T07:31:23;9.20;;;4.65;;
78732;SDS011;68056;52.530;5.454;2024-01-30T07:33:48;6.22;;;5.13;;
78732;SDS011;68056;52.530;5.454;2024-01-30T07:36:14;7.95;;;5.35;;
78732;SDS011;68056;52.530;5.454;2024-01-30T07:38:40;7.05;;;5.57;;
78732;SDS011;68056;52.530;5.454;2024-01-30T07:41:05;7.47;;;5.05;;
78732;SDS011;68056;52.530;5.454;2024-01-30T07:43:31;7.50;;;4.78;;
78732;SDS011;68056;52.530;5.454;2024-01-30T07:45:56;8.30;;;4.80;;
78732;SDS011;68056;52.530;5.454;2024-01-30T07:48:22;8.80;;;5.13;;
78732;SDS011;68056;52.530;5.454;2024-01-30T07:50:47;7.40;;;5.05;;
78732;SDS011;68056;52.530;5.454;2024-01-30T07:53:13;10.00;;;5.20;;
78732;SDS011;68056;52.530;5.454;2024-01-30T07:55:39;9.23;;;4.88;;
78732;SDS011;68056;52.530;5.454;2024-01-30T07:58:04;7.70;;;4.40;;
78732;SDS011;68056;52.530;5.454;2024-01-30T08:00:30;9.55;;;5.50;;
78732;SDS011;68056;52.530;5.454;2024-01-30T08:02:56;8.95;;;5.30;;
78732;SDS011;68056;52.530;5.454;2024-01-30T08:05:22;7.63;;;5.30;;
78732;SDS011;68056;52.530;5.454;2024-01-30T08:07:48;8.00;;;4.70;;
78732;SDS011;68056;52.530;5.454;2024-01-30T08:10:14;6.63;;;4.60;;
78732;SDS011;68056;52.530;5.454;2024-01-30T08:12:40;8.00;;;5.10;;
78732;SDS011;68056;52.530;5.454;2024-01-30T08:15:06;9.02;;;5.28;;
78732;SDS011;68056;52.530;5.454;2024-01-30T08:17:32;6.95;;;4.70;;
78732;SDS011;68056;52.530;5.454;2024-01-30T08:19:58;10.25;;;6.03;;
78732;SDS011;68056;52.530;5.454;2024-01-30T08:22:24;7.95;;;4.57;;
78732;SDS011;68056;52.530;5.454;2024-01-30T08:24:49;7.55;;;4.95;;
78732;SDS011;68056;52.530;5.454;2024-01-30T08:27:15;5.63;;;4.47;;
78732;SDS011;68056;52.530;5.454;2024-01-30T08:29:41;7.22;;;4.30;;
78732;SDS011;68056;52.530;5.454;2024-01-30T08:32:06;8.32;;;4.50;;
78732;SDS011;68056;52.530;5.454;2024-01-30T08:34:32;7.65;;;3.97;;
78732;SDS011;68056;52.530;5.454;2024-01-30T08:36:58;7.32;;;4.88;;
78732;SDS011;68056;52.530;5.454;2024-01-30T08:39:23;7.72;;;4.50;;
78732;SDS011;68056;52.530;5.454;2024-01-30T08:41:49;9.38;;;4.05;;
78732;SDS011;68056;52.530;5.454;2024-01-30T08:44:15;8.07;;;4.35;;
78732;SDS011;68056;52.530;5.454;2024-01-30T08:46:47;7.72;;;4.60;;
78732;SDS011;68056;52.530;5.454;2024-01-30T08:49:21;6.82;;;4.25;;
78732;SDS011;68056;52.530;5.454;2024-01-30T08:51:47;7.22;;;4.43;;
78732;SDS011;68056;52.530;5.454;2024-01-30T08:54:24;8.70;;;4.50;;
78732;SDS011;68056;52.530;5.454;2024-01-30T08:56:53;8.43;;;4.45;;
78732;SDS011;68056;52.530;5.454;2024-01-30T08:59:20;8.73;;;4.88;;
78732;SDS011;68056;52.530;5.454;2024-01-30T09:01:46;7.90;;;4.18;;
78732;SDS011;68056;52.530;5.454;2024-01-30T09:04:12;8.73;;;4.68;;
78732;SDS011;68056;52.530;5.454;2024-01-30T09:06:37;7.10;;;4.45;;
78732;SDS011;68056;52.530;5.454;2024-01-30T09:09:04;8.18;;;4.40;;
78732;SDS011;68056;52.530;5.454;2024-01-30T09:11:30;9.48;;;4.65;;
78732;SDS011;68056;52.530;5.454;2024-01-30T09:13:56;8.32;;;5.28;;
78732;SDS011;68056;52.530;5.454;2024-01-30T09:16:21;9.55;;;4.78;;
78732;SDS011;68056;52.530;5.454;2024-01-30T09:18:47;10.73;;;6.57;;
78732;SDS011;68056;52.530;5.454;2024-01-30T09:21:13;6.35;;;4.28;;
78732;SDS011;68056;52.530;5.454;2024-01-30T09:23:38;8.45;;;4.60;;
78732;SDS011;68056;52.530;5.454;2024-01-30T09:26:04;9.88;;;4.85;;
78732;SDS011;68056;52.530;5.454;2024-01-30T09:28:29;6.13;;;4.43;;
78732;SDS011;68056;52.530;5.454;2024-01-30T09:30:55;7.25;;;4.80;;
78732;SDS011;68056;52.530;5.454;2024-01-30T09:33:20;9.70;;;5.13;;
78732;SDS011;68056;52.530;5.454;2024-01-30T09:35:46;9.13;;;5.35;;
78732;SDS011;68056;52.530;5.454;2024-01-30T09:38:11;10.40;;;5.45;;
78732;SDS011;68056;52.530;5.454;2024-01-30T09:40:37;7.32;;;4.88;;
78732;SDS011;68056;52.530;5.454;2024-01-30T09:43:02;6.50;;;5.05;;
78732;SDS011;68056;52.530;5.454;2024-01-30T09:45:31;9.07;;;5.80;;
78732;SDS011;68056;52.530;5.454;2024-01-30T09:47:59;11.27;;;5.15;;
78732;SDS011;68056;52.530;5.454;2024-01-30T09:50:25;8.65;;;5.13;;
78732;SDS011;68056;52.530;5.454;2024-01-30T09:52:51;7.57;;;5.40;;
78732;SDS011;68056;52.530;5.454;2024-01-30T09:55:20;8.13;;;5.70;;
78732;SDS011;68056;52.530;5.454;2024-01-30T09:57:46;8.85;;;5.80;;
78732;SDS011;68056;52.530;5.454;2024-01-30T10:00:11;7.15;;;4.88;;
78732;SDS011;68056;52.530;5.454;2024-01-30T10:02:38;9.15;;;5.03;;
78732;SDS011;68056;52.530;5.454;2024-01-30T10:05:04;11.10;;;6.15;;
78732;SDS011;68056;52.530;5.454;2024-01-30T10:07:30;7.47;;;5.28;;
78732;SDS011;68056;52.530;5.454;2024-01-30T10:09:56;9.20;;;5.25;;
78732;SDS011;68056;52.530;5.454;2024-01-30T10:12:22;8.27;;;5.32;;
78732;SDS011;68056;52.530;5.454;2024-01-30T10:14:48;8.02;;;5.13;;
78732;SDS011;68056;52.530;5.454;2024-01-30T10:17:13;11.07;;;6.65;;
78732;SDS011;68056;52.530;5.454;2024-01-30T10:19:39;8.95;;;6.05;;
78732;SDS011;68056;52.530;5.454;2024-01-30T10:22:06;10.38;;;4.80;;
78732;SDS011;68056;52.530;5.454;2024-01-30T10:24:33;6.80;;;4.93;;
78732;SDS011;68056;52.530;5.454;2024-01-30T10:26:59;8.73;;;4.55;;
78732;SDS011;68056;52.530;5.454;2024-01-30T10:29:24;7.03;;;5.43;;
78732;SDS011;68056;52.530;5.454;2024-01-30T10:32:08;7.40;;;5.00;;
78732;SDS011;68056;52.530;5.454;2024-01-30T10:34:36;7.85;;;4.80;;
78732;SDS011;68056;52.530;5.454;2024-01-30T10:37:09;9.63;;;5.43;;
78732;SDS011;68056;52.530;5.454;2024-01-30T10:39:38;10.27;;;4.85;;
78732;SDS011;68056;52.530;5.454;2024-01-30T10:42:05;7.43;;;5.57;;
78732;SDS011;68056;52.530;5.454;2024-01-30T10:44:52;8.43;;;5.90;;
78732;SDS011;68056;52.530;5.454;2024-01-30T10:47:37;8.07;;;5.68;;
78732;SDS011;68056;52.530;5.454;2024-01-30T10:50:05;8.68;;;5.45;;
78732;SDS011;68056;52.530;5.454;2024-01-30T10:52:33;8.02;;;5.45;;
78732;SDS011;68056;52.530;5.454;2024-01-30T10:54:59;14.00;;;8.02;;
78732;SDS011;68056;52.530;5.454;2024-01-30T10:57:26;11.02;;;5.55;;
78732;SDS011;68056;52.530;5.454;2024-01-30T10:59:52;12.57;;;4.90;;
78732;SDS011;68056;52.530;5.454;2024-01-30T11:02:22;10.88;;;4.95;;
78732;SDS011;68056;52.530;5.454;2024-01-30T11:04:48;7.72;;;4.40;;
78732;SDS011;68056;52.530;5.454;2024-01-30T11:09:47;9.77;;;3.70;;
78732;SDS011;68056;52.530;5.454;2024-01-30T11:12:21;5.53;;;3.10;;
78732;SDS011;68056;52.530;5.454;2024-01-30T11:14:48;4.90;;;3.15;;
78732;SDS011;68056;52.530;5.454;2024-01-30T11:17:13;2.88;;;1.40;;
78732;SDS011;68056;52.530;5.454;2024-01-30T11:19:42;2.33;;;1.08;;
78732;SDS011;68056;52.530;5.454;2024-01-30T11:22:08;1.25;;;0.95;;
78732;SDS011;68056;52.530;5.454;2024-01-30T11:24:38;2.90;;;1.25;;
78732;SDS011;68056;52.530;5.454;2024-01-30T11:27:07;3.28;;;1.25;;
78732;SDS011;68056;52.530;5.454;2024-01-30T11:29:35;2.17;;;1.10;;
78732;SDS011;68056;52.530;5.454;2024-01-30T11:32:01;5.55;;;1.33;;
78732;SDS011;68056;52.530;5.454;2024-01-30T11:34:28;4.70;;;1.45;;
78732;SDS011;68056;52.530;5.454;2024-01-30T11:36:57;2.10;;;1.10;;
78732;SDS011;68056;52.530;5.454;2024-01-30T11:39:25;2.78;;;1.00;;
78732;SDS011;68056;52.530;5.454;2024-01-30T11:41:52;1.77;;;1.02;;
78732;SDS011;68056;52.530;5.454;2024-01-30T11:44:18;3.38;;;0.93;;
78732;SDS011;68056;52.530;5.454;2024-01-30T11:46:48;3.60;;;1.02;;
78732;SDS011;68056;52.530;5.454;2024-01-30T11:49:14;2.05;;;0.70;;
78732;SDS011;68056;52.530;5.454;2024-01-30T11:51:40;3.30;;;1.10;;
78732;SDS011;68056;52.530;5.454;2024-01-30T11:54:07;2.53;;;0.60;;
78732;SDS011;68056;52.530;5.454;2024-01-30T11:56:36;1.30;;;0.50;;
78732;SDS011;68056;52.530;5.454;2024-01-30T11:59:03;3.22;;;1.88;;
78732;SDS011;68056;52.530;5.454;2024-01-30T12:01:29;3.95;;;0.40;;
78732;SDS011;68056;52.530;5.454;2024-01-30T12:03:56;1.33;;;0.60;;
78732;SDS011;68056;52.530;5.454;2024-01-30T12:06:23;1.23;;;0.52;;
78732;SDS011;68056;52.530;5.454;2024-01-30T12:08:59;1.40;;;0.50;;
78732;SDS011;68056;52.530;5.454;2024-01-30T12:11:26;1.35;;;0.68;;
78732;SDS011;68056;52.530;5.454;2024-01-30T12:13:52;1.23;;;0.60;;
78732;SDS011;68056;52.530;5.454;2024-01-30T12:16:19;2.72;;;0.82;;
78732;SDS011;68056;52.530;5.454;2024-01-30T12:18:45;3.58;;;0.60;;
78732;SDS011;68056;52.530;5.454;2024-01-30T12:21:11;2.22;;;0.80;;
78732;SDS011;68056;52.530;5.454;2024-01-30T12:23:36;0.70;;;0.40;;
78732;SDS011;68056;52.530;5.454;2024-01-30T12:26:02;1.90;;;0.50;;
78732;SDS011;68056;52.530;5.454;2024-01-30T12:28:29;1.45;;;0.68;;
78732;SDS011;68056;52.530;5.454;2024-01-30T12:31:01;1.83;;;1.00;;
78732;SDS011;68056;52.530;5.454;2024-01-30T12:33:28;1.45;;;0.50;;
78732;SDS011;68056;52.530;5.454;2024-01-30T12:35:54;2.92;;;0.52;;
78732;SDS011;68056;52.530;5.454;2024-01-30T12:38:20;2.10;;;0.50;;
78732;SDS011;68056;52.530;5.454;2024-01-30T12:40:46;0.63;;;0.50;;
78732;SDS011;68056;52.530;5.454;2024-01-30T12:43:13;1.13;;;0.52;;
78732;SDS011;68056;52.530;5.454;2024-01-30T12:45:39;1.27;;;0.50;;
78732;SDS011;68056;52.530;5.454;2024-01-30T12:48:06;1.08;;;0.70;;
78732;SDS011;68056;52.530;5.454;2024-01-30T12:50:31;1.30;;;0.55;;
78732;SDS011;68056;52.530;5.454;2024-01-30T12:52:57;2.05;;;0.95;;
78732;SDS011;68056;52.530;5.454;2024-01-30T12:55:23;2.05;;;0.98;;
78732;SDS011;68056;52.530;5.454;2024-01-30T12:57:49;4.35;;;0.90;;
78732;SDS011;68056;52.530;5.454;2024-01-30T13:00:15;3.67;;;1.10;;
78732;SDS011;68056;52.530;5.454;2024-01-30T13:02:43;2.88;;;0.90;;
78732;SDS011;68056;52.530;5.454;2024-01-30T13:05:10;2.53;;;1.08;;
78732;SDS011;68056;52.530;5.454;2024-01-30T13:07:35;3.95;;;0.95;;
78732;SDS011;68056;52.530;5.454;2024-01-30T13:10:02;2.70;;;0.90;;
78732;SDS011;68056;52.530;5.454;2024-01-30T13:12:29;2.88;;;1.00;;
78732;SDS011;68056;52.530;5.454;2024-01-30T13:14:55;1.13;;;0.80;;
78732;SDS011;68056;52.530;5.454;2024-01-30T13:17:21;2.13;;;1.17;;
78732;SDS011;68056;52.530;5.454;2024-01-30T13:19:46;2.53;;;1.13;;
78732;SDS011;68056;52.530;5.454;2024-01-30T13:22:14;2.80;;;0.90;;
78732;SDS011;68056;52.530;5.454;2024-01-30T13:24:40;2.40;;;1.00;;
78732;SDS011;68056;52.530;5.454;2024-01-30T13:27:06;1.52;;;0.93;;
78732;SDS011;68056;52.530;5.454;2024-01-30T13:29:32;3.22;;;1.10;;
78732;SDS011;68056;52.530;5.454;2024-01-30T13:31:58;2.70;;;1.10;;
78732;SDS011;68056;52.530;5.454;2024-01-30T13:34:23;4.03;;;1.20;;
78732;SDS011;68056;52.530;5.454;2024-01-30T13:36:49;5.68;;;2.28;;
78732;SDS011;68056;52.530;5.454;2024-01-30T13:39:15;2.05;;;1.00;;
78732;SDS011;68056;52.530;5.454;2024-01-30T13:41:41;2.45;;;1.30;;
78732;SDS011;68056;52.530;5.454;2024-01-30T13:44:07;3.17;;;1.30;;
78732;SDS011;68056;52.530;5.454;2024-01-30T13:46:34;3.78;;;2.08;;
78732;SDS011;68056;52.530;5.454;2024-01-30T13:49:00;1.42;;;1.30;;
78732;SDS011;68056;52.530;5.454;2024-01-30T13:51:28;2.55;;;1.48;;
78732;SDS011;68056;52.530;5.454;2024-01-30T13:53:53;1.83;;;1.40;;
78732;SDS011;68056;52.530;5.454;2024-01-30T13:56:19;1.40;;;1.30;;
78732;SDS011;68056;52.530;5.454;2024-01-30T13:58:47;3.22;;;1.38;;
78732;SDS011;68056;52.530;5.454;2024-01-30T14:01:14;3.70;;;1.10;;
78732;SDS011;68056;52.530;5.454;2024-01-30T14:03:39;2.13;;;1.25;;
78732;SDS011;68056;52.530;5.454;2024-01-30T14:06:08;4.10;;;1.42;;
78732;SDS011;68056;52.530;5.454;2024-01-30T14:08:33;3.20;;;1.48;;
78732;SDS011;68056;52.530;5.454;2024-01-30T14:10:59;3.90;;;1.30;;
78732;SDS011;68056;52.530;5.454;2024-01-30T14:13:25;2.75;;;1.20;;
78732;SDS011;68056;52.530;5.454;2024-01-30T14:15:51;2.25;;;1.33;;
78732;SDS011;68056;52.530;5.454;2024-01-30T14:18:17;2.47;;;1.45;;
78732;SDS011;68056;52.530;5.454;2024-01-30T14:20:43;3.17;;;1.45;;
78732;SDS011;68056;52.530;5.454;2024-01-30T14:23:10;2.40;;;1.20;;
78732;SDS011;68056;52.530;5.454;2024-01-30T14:25:35;2.25;;;1.23;;
78732;SDS011;68056;52.530;5.454;2024-01-30T14:28:01;3.35;;;1.58;;
78732;SDS011;68056;52.530;5.454;2024-01-30T14:30:26;5.80;;;1.65;;
78732;SDS011;68056;52.530;5.454;2024-01-30T14:32:52;3.78;;;1.70;;
78732;SDS011;68056;52.530;5.454;2024-01-30T14:35:18;2.70;;;1.98;;
78732;SDS011;68056;52.530;5.454;2024-01-30T14:37:44;2.20;;;1.50;;
78732;SDS011;68056;52.530;5.454;2024-01-30T14:40:10;2.53;;;1.45;;
78732;SDS011;68056;52.530;5.454;2024-01-30T14:42:36;2.65;;;1.60;;
78732;SDS011;68056;52.530;5.454;2024-01-30T14:45:02;2.35;;;1.27;;